sensor_id;sensor_type;location;lat;lon;timestamp;temperature;humidity
8178;DHT22;4130;48.740;9.132;2023-05-07T00:02:03;11.60;99.90
8178;DHT22;4130;48.740;9.132;2023-05-07T00:04:31;11.50;99.90
8178;DHT22;4130;48.740;9.132;2023-05-07T00:07:02;11.50;99.90
8178;DHT22;4130;48.740;9.132;2023-05-07T00:09:29;11.50;99.90
8178;DHT22;4130;48.740;9.132;2023-05-07T00:11:55;11.60;99.90
8178;DHT22;4130;48.740;9.132;2023-05-07T00:14:22;11.40;99.90
8178;DHT22;4130;48.740;9.132;2023-05-07T00:16:49;11.60;99.90
8178;DHT22;4130;48.740;9.132;2023-05-07T00:19:16;11.40;99.90
8178;DHT22;4130;48.740;9.132;2023-05-07T00:21:44;11.40;99.90
8178;DHT22;4130;48.740;9.132;2023-05-07T00:24:11;11.40;99.90
8178;DHT22;4130;48.740;9.132;2023-05-07T00:26:38;11.40;99.90
8178;DHT22;4130;48.740;9.132;2023-05-07T00:29:05;11.40;99.90
8178;DHT22;4130;48.740;9.132;2023-05-07T00:31:32;11.40;99.90
8178;DHT22;4130;48.740;9.132;2023-05-07T00:33:59;11.40;99.90
8178;DHT22;4130;48.740;9.132;2023-05-07T00:36:25;11.40;99.90
8178;DHT22;4130;48.740;9.132;2023-05-07T00:38:54;11.30;99.90
8178;DHT22;4130;48.740;9.132;2023-05-07T00:41:21;11.30;99.90
8178;DHT22;4130;48.740;9.132;2023-05-07T00:43:48;11.30;99.90
8178;DHT22;4130;48.740;9.132;2023-05-07T00:46:17;11.30;99.90
8178;DHT22;4130;48.740;9.132;2023-05-07T00:48:44;11.30;99.90
8178;DHT22;4130;48.740;9.132;2023-05-07T00:51:11;11.30;99.90
8178;DHT22;4130;48.740;9.132;2023-05-07T00:53:38;11.30;99.90
8178;DHT22;4130;48.740;9.132;2023-05-07T00:56:07;11.20;99.90
8178;DHT22;4130;48.740;9.132;2023-05-07T00:58:34;11.20;99.90
8178;DHT22;4130;48.740;9.132;2023-05-07T01:01:02;11.10;99.90
8178;DHT22;4130;48.740;9.132;2023-05-07T01:03:29;11.20;99.90
8178;DHT22;4130;48.740;9.132;2023-05-07T01:05:57;11.20;99.90
8178;DHT22;4130;48.740;9.132;2023-05-07T01:08:25;11.20;99.90
8178;DHT22;4130;48.740;9.132;2023-05-07T01:10:54;11.10;99.90
8178;DHT22;4130;48.740;9.132;2023-05-07T01:13:24;11.20;99.90
8178;DHT22;4130;48.740;9.132;2023-05-07T01:15:51;11.10;99.90
8178;DHT22;4130;48.740;9.132;2023-05-07T01:18:17;11.10;99.90
8178;DHT22;4130;48.740;9.132;2023-05-07T01:20:45;11.10;99.90
8178;DHT22;4130;48.740;9.132;2023-05-07T01:23:13;11.10;99.90
8178;DHT22;4130;48.740;9.132;2023-05-07T01:25:41;11.10;99.90
8178;DHT22;4130;48.740;9.132;2023-05-07T01:28:07;11.20;99.90
8178;DHT22;4130;48.740;9.132;2023-05-07T01:30:34;11.20;99.90
8178;DHT22;4130;48.740;9.132;2023-05-07T01:33:04;11.10;99.90
8178;DHT22;4130;48.740;9.132;2023-05-07T01:35:37;11.10;99.90
8178;DHT22;4130;48.740;9.132;2023-05-07T01:38:05;11.10;99.90
8178;DHT22;4130;48.740;9.132;2023-05-07T01:40:34;11.10;99.90
8178;DHT22;4130;48.740;9.132;2023-05-07T01:43:01;11.00;99.90
8178;DHT22;4130;48.740;9.132;2023-05-07T01:45:30;11.00;99.90
8178;DHT22;4130;48.740;9.132;2023-05-07T01:47:58;11.10;99.90
8178;DHT22;4130;48.740;9.132;2023-05-07T01:50:25;11.00;99.90
8178;DHT22;4130;48.740;9.132;2023-05-07T01:52:52;10.90;99.90
8178;DHT22;4130;48.740;9.132;2023-05-07T01:55:19;10.90;99.90
8178;DHT22;4130;48.740;9.132;2023-05-07T01:57:47;10.90;99.90
8178;DHT22;4130;48.740;9.132;2023-05-07T02:00:14;10.90;99.90
8178;DHT22;4130;48.740;9.132;2023-05-07T02:02:41;10.90;99.90
8178;DHT22;4130;48.740;9.132;2023-05-07T02:05:08;10.90;99.90
8178;DHT22;4130;48.740;9.132;2023-05-07T02:07:35;10.90;99.90
8178;DHT22;4130;48.740;9.132;2023-05-07T02:10:02;10.90;99.90
8178;DHT22;4130;48.740;9.132;2023-05-07T02:12:29;11.00;99.90
8178;DHT22;4130;48.740;9.132;2023-05-07T02:14:57;11.00;99.90
8178;DHT22;4130;48.740;9.132;2023-05-07T02:17:24;11.20;99.90
8178;DHT22;4130;48.740;9.132;2023-05-07T02:19:51;11.10;99.90
8178;DHT22;4130;48.740;9.132;2023-05-07T02:22:18;11.20;99.90
8178;DHT22;4130;48.740;9.132;2023-05-07T02:24:44;11.20;99.90
8178;DHT22;4130;48.740;9.132;2023-05-07T02:27:11;11.20;99.90
8178;DHT22;4130;48.740;9.132;2023-05-07T02:29:38;11.20;99.90
8178;DHT22;4130;48.740;9.132;2023-05-07T02:32:06;11.20;99.90
8178;DHT22;4130;48.740;9.132;2023-05-07T02:34:33;11.20;99.90
8178;DHT22;4130;48.740;9.132;2023-05-07T02:37:00;11.10;99.90
8178;DHT22;4130;48.740;9.132;2023-05-07T02:39:27;11.00;99.90
8178;DHT22;4130;48.740;9.132;2023-05-07T02:41:53;10.90;99.90
8178;DHT22;4130;48.740;9.132;2023-05-07T02:44:20;10.90;99.90
8178;DHT22;4130;48.740;9.132;2023-05-07T02:46:47;10.80;99.90
8178;DHT22;4130;48.740;9.132;2023-05-07T02:49:15;10.80;99.90
8178;DHT22;4130;48.740;9.132;2023-05-07T02:51:42;10.70;99.90
8178;DHT22;4130;48.740;9.132;2023-05-07T02:54:08;10.70;99.90
8178;DHT22;4130;48.740;9.132;2023-05-07T02:56:35;10.70;99.90
8178;DHT22;4130;48.740;9.132;2023-05-07T02:59:02;10.60;99.90
8178;DHT22;4130;48.740;9.132;2023-05-07T03:01:28;10.60;99.90
8178;DHT22;4130;48.740;9.132;2023-05-07T03:03:55;10.60;99.90
8178;DHT22;4130;48.740;9.132;2023-05-07T03:06:23;10.70;99.90
8178;DHT22;4130;48.740;9.132;2023-05-07T03:08:51;10.50;99.90
8178;DHT22;4130;48.740;9.132;2023-05-07T03:11:18;10.50;99.90
8178;DHT22;4130;48.740;9.132;2023-05-07T03:13:45;10.40;99.90
8178;DHT22;4130;48.740;9.132;2023-05-07T03:16:12;10.40;99.90
8178;DHT22;4130;48.740;9.132;2023-05-07T03:18:38;10.30;99.90
8178;DHT22;4130;48.740;9.132;2023-05-07T03:21:05;10.30;99.90
8178;DHT22;4130;48.740;9.132;2023-05-07T03:23:33;10.20;99.90
8178;DHT22;4130;48.740;9.132;2023-05-07T03:26:00;10.20;99.90
8178;DHT22;4130;48.740;9.132;2023-05-07T03:28:27;10.20;99.90
8178;DHT22;4130;48.740;9.132;2023-05-07T03:30:53;10.10;99.90
8178;DHT22;4130;48.740;9.132;2023-05-07T03:33:20;10.10;99.90
8178;DHT22;4130;48.740;9.132;2023-05-07T03:35:47;10.10;99.90
8178;DHT22;4130;48.740;9.132;2023-05-07T03:38:14;10.00;99.90
8178;DHT22;4130;48.740;9.132;2023-05-07T03:40:42;9.90;99.90
8178;DHT22;4130;48.740;9.132;2023-05-07T03:43:09;9.90;99.90
8178;DHT22;4130;48.740;9.132;2023-05-07T03:45:35;9.80;99.90
8178;DHT22;4130;48.740;9.132;2023-05-07T03:48:02;9.90;99.90
8178;DHT22;4130;48.740;9.132;2023-05-07T03:50:29;9.80;99.90
8178;DHT22;4130;48.740;9.132;2023-05-07T03:52:56;9.80;99.90
8178;DHT22;4130;48.740;9.132;2023-05-07T03:55:23;9.80;99.90
8178;DHT22;4130;48.740;9.132;2023-05-07T03:57:51;9.80;99.90
8178;DHT22;4130;48.740;9.132;2023-05-07T04:00:18;9.80;99.90
8178;DHT22;4130;48.740;9.132;2023-05-07T04:02:45;9.80;99.90
8178;DHT22;4130;48.740;9.132;2023-05-07T04:05:13;9.80;99.90
8178;DHT22;4130;48.740;9.132;2023-05-07T04:07:40;9.70;99.90
8178;DHT22;4130;48.740;9.132;2023-05-07T04:10:07;9.80;99.90
8178;DHT22;4130;48.740;9.132;2023-05-07T04:12:35;9.80;99.90
8178;DHT22;4130;48.740;9.132;2023-05-07T04:15:04;9.80;99.90
8178;DHT22;4130;48.740;9.132;2023-05-07T04:17:30;9.80;99.90
8178;DHT22;4130;48.740;9.132;2023-05-07T04:19:57;9.80;99.90
8178;DHT22;4130;48.740;9.132;2023-05-07T04:22:24;9.80;99.90
8178;DHT22;4130;48.740;9.132;2023-05-07T04:24:51;9.80;99.90
8178;DHT22;4130;48.740;9.132;2023-05-07T04:27:18;9.90;99.90
8178;DHT22;4130;48.740;9.132;2023-05-07T04:29:45;9.90;99.90
8178;DHT22;4130;48.740;9.132;2023-05-07T04:32:14;10.00;99.90
8178;DHT22;4130;48.740;9.132;2023-05-07T04:34:41;10.00;99.90
8178;DHT22;4130;48.740;9.132;2023-05-07T04:37:07;10.00;99.90
8178;DHT22;4130;48.740;9.132;2023-05-07T04:39:34;10.00;99.90
8178;DHT22;4130;48.740;9.132;2023-05-07T04:42:01;10.10;99.90
8178;DHT22;4130;48.740;9.132;2023-05-07T04:44:28;10.10;99.90
8178;DHT22;4130;48.740;9.132;2023-05-07T04:46:56;10.10;99.90
8178;DHT22;4130;48.740;9.132;2023-05-07T04:49:24;10.10;99.90
8178;DHT22;4130;48.740;9.132;2023-05-07T04:51:51;10.10;99.90
8178;DHT22;4130;48.740;9.132;2023-05-07T04:54:17;10.10;99.90
8178;DHT22;4130;48.740;9.132;2023-05-07T04:56:44;10.10;99.90
8178;DHT22;4130;48.740;9.132;2023-05-07T04:59:11;10.10;99.90
8178;DHT22;4130;48.740;9.132;2023-05-07T05:01:38;10.10;99.90
8178;DHT22;4130;48.740;9.132;2023-05-07T05:04:05;10.10;99.90
8178;DHT22;4130;48.740;9.132;2023-05-07T05:06:33;10.20;99.90
8178;DHT22;4130;48.740;9.132;2023-05-07T05:09:00;10.20;99.90
8178;DHT22;4130;48.740;9.132;2023-05-07T05:11:27;10.20;99.90
8178;DHT22;4130;48.740;9.132;2023-05-07T05:13:54;10.20;99.90
8178;DHT22;4130;48.740;9.132;2023-05-07T05:16:21;10.30;99.90
8178;DHT22;4130;48.740;9.132;2023-05-07T05:18:48;10.50;99.90
8178;DHT22;4130;48.740;9.132;2023-05-07T05:21:14;10.50;99.90
8178;DHT22;4130;48.740;9.132;2023-05-07T05:23:42;10.70;99.90
8178;DHT22;4130;48.740;9.132;2023-05-07T05:26:09;10.70;99.90
8178;DHT22;4130;48.740;9.132;2023-05-07T05:28:36;10.80;99.90
8178;DHT22;4130;48.740;9.132;2023-05-07T05:31:03;10.90;99.90
8178;DHT22;4130;48.740;9.132;2023-05-07T05:33:29;11.00;99.90
8178;DHT22;4130;48.740;9.132;2023-05-07T05:35:56;11.10;99.90
8178;DHT22;4130;48.740;9.132;2023-05-07T05:38:23;11.20;99.90
8178;DHT22;4130;48.740;9.132;2023-05-07T05:40:51;11.30;99.90
8178;DHT22;4130;48.740;9.132;2023-05-07T05:43:18;11.50;99.90
8178;DHT22;4130;48.740;9.132;2023-05-07T05:45:45;11.60;99.90
8178;DHT22;4130;48.740;9.132;2023-05-07T05:48:11;11.70;99.90
8178;DHT22;4130;48.740;9.132;2023-05-07T05:50:38;11.80;99.90
8178;DHT22;4130;48.740;9.132;2023-05-07T05:53:05;12.00;99.90
8178;DHT22;4130;48.740;9.132;2023-05-07T05:55:31;12.10;99.90
8178;DHT22;4130;48.740;9.132;2023-05-07T05:58:00;12.20;99.90
8178;DHT22;4130;48.740;9.132;2023-05-07T06:00:27;12.40;99.90
8178;DHT22;4130;48.740;9.132;2023-05-07T06:06:27;12.70;99.90
8178;DHT22;4130;48.740;9.132;2023-05-07T06:08:55;12.90;99.90
8178;DHT22;4130;48.740;9.132;2023-05-07T06:11:22;13.20;99.90
8178;DHT22;4130;48.740;9.132;2023-05-07T06:13:50;13.40;99.90
8178;DHT22;4130;48.740;9.132;2023-05-07T06:16:17;13.70;99.90
8178;DHT22;4130;48.740;9.132;2023-05-07T06:18:43;14.00;99.90
8178;DHT22;4130;48.740;9.132;2023-05-07T06:21:13;14.20;99.90
8178;DHT22;4130;48.740;9.132;2023-05-07T06:23:39;14.40;99.90
8178;DHT22;4130;48.740;9.132;2023-05-07T06:26:06;14.60;99.90
8178;DHT22;4130;48.740;9.132;2023-05-07T06:28:33;14.60;99.90
8178;DHT22;4130;48.740;9.132;2023-05-07T06:31:12;14.80;99.90
8178;DHT22;4130;48.740;9.132;2023-05-07T06:33:40;14.80;99.90
8178;DHT22;4130;48.740;9.132;2023-05-07T06:36:07;14.80;99.90
8178;DHT22;4130;48.740;9.132;2023-05-07T06:38:33;14.80;99.90
8178;DHT22;4130;48.740;9.132;2023-05-07T06:41:00;14.60;99.90
8178;DHT22;4130;48.740;9.132;2023-05-07T06:43:27;14.50;99.90
8178;DHT22;4130;48.740;9.132;2023-05-07T06:45:54;14.40;99.90
8178;DHT22;4130;48.740;9.132;2023-05-07T06:48:22;14.30;99.90
8178;DHT22;4130;48.740;9.132;2023-05-07T06:50:48;14.30;99.90
8178;DHT22;4130;48.740;9.132;2023-05-07T06:53:15;14.30;99.90
8178;DHT22;4130;48.740;9.132;2023-05-07T06:55:42;14.40;99.90
8178;DHT22;4130;48.740;9.132;2023-05-07T06:58:09;14.50;99.90
8178;DHT22;4130;48.740;9.132;2023-05-07T07:00:35;14.70;99.90
8178;DHT22;4130;48.740;9.132;2023-05-07T07:03:02;15.20;99.90
8178;DHT22;4130;48.740;9.132;2023-05-07T07:05:30;15.60;99.90
8178;DHT22;4130;48.740;9.132;2023-05-07T07:07:57;16.20;99.90
8178;DHT22;4130;48.740;9.132;2023-05-07T07:10:24;16.80;99.90
8178;DHT22;4130;48.740;9.132;2023-05-07T07:12:51;17.30;99.90
8178;DHT22;4130;48.740;9.132;2023-05-07T07:15:19;17.50;99.90
8178;DHT22;4130;48.740;9.132;2023-05-07T07:17:46;17.70;99.90
8178;DHT22;4130;48.740;9.132;2023-05-07T07:20:13;17.90;99.90
8178;DHT22;4130;48.740;9.132;2023-05-07T07:22:41;18.00;99.90
8178;DHT22;4130;48.740;9.132;2023-05-07T07:25:08;18.30;99.90
8178;DHT22;4130;48.740;9.132;2023-05-07T07:27:36;18.40;99.90
8178;DHT22;4130;48.740;9.132;2023-05-07T07:30:06;18.60;99.90
8178;DHT22;4130;48.740;9.132;2023-05-07T07:32:34;18.40;99.90
8178;DHT22;4130;48.740;9.132;2023-05-07T07:35:01;18.40;99.90
8178;DHT22;4130;48.740;9.132;2023-05-07T07:37:28;18.70;99.90
8178;DHT22;4130;48.740;9.132;2023-05-07T07:39:56;18.70;99.90
8178;DHT22;4130;48.740;9.132;2023-05-07T07:42:23;19.00;99.90
8178;DHT22;4130;48.740;9.132;2023-05-07T07:44:50;19.30;99.90
8178;DHT22;4130;48.740;9.132;2023-05-07T07:47:17;19.40;99.90
8178;DHT22;4130;48.740;9.132;2023-05-07T07:49:44;19.80;99.90
8178;DHT22;4130;48.740;9.132;2023-05-07T07:52:10;20.20;99.90
8178;DHT22;4130;48.740;9.132;2023-05-07T07:54:37;20.60;99.90
8178;DHT22;4130;48.740;9.132;2023-05-07T07:57:05;20.90;99.90
8178;DHT22;4130;48.740;9.132;2023-05-07T07:59:32;21.00;99.90
8178;DHT22;4130;48.740;9.132;2023-05-07T08:01:59;21.20;99.90
8178;DHT22;4130;48.740;9.132;2023-05-07T08:04:26;21.60;99.90
8178;DHT22;4130;48.740;9.132;2023-05-07T08:06:52;21.90;99.90
8178;DHT22;4130;48.740;9.132;2023-05-07T08:09:20;21.70;99.90
8178;DHT22;4130;48.740;9.132;2023-05-07T08:11:47;21.60;99.90
8178;DHT22;4130;48.740;9.132;2023-05-07T08:14:15;21.40;99.90
8178;DHT22;4130;48.740;9.132;2023-05-07T08:16:42;21.40;99.90
8178;DHT22;4130;48.740;9.132;2023-05-07T08:19:09;21.60;99.90
8178;DHT22;4130;48.740;9.132;2023-05-07T08:21:39;21.40;99.90
8178;DHT22;4130;48.740;9.132;2023-05-07T08:24:06;21.80;99.90
8178;DHT22;4130;48.740;9.132;2023-05-07T08:26:32;21.70;99.90
8178;DHT22;4130;48.740;9.132;2023-05-07T08:29:01;21.90;99.90
8178;DHT22;4130;48.740;9.132;2023-05-07T08:31:29;22.20;99.90
8178;DHT22;4130;48.740;9.132;2023-05-07T08:33:56;22.40;99.90
8178;DHT22;4130;48.740;9.132;2023-05-07T08:36:23;22.20;99.90
8178;DHT22;4130;48.740;9.132;2023-05-07T08:38:51;22.00;99.90
8178;DHT22;4130;48.740;9.132;2023-05-07T08:41:17;22.10;99.90
8178;DHT22;4130;48.740;9.132;2023-05-07T08:43:48;22.10;99.90
8178;DHT22;4130;48.740;9.132;2023-05-07T08:46:17;22.10;99.90
8178;DHT22;4130;48.740;9.132;2023-05-07T08:48:47;22.50;99.90
8178;DHT22;4130;48.740;9.132;2023-05-07T08:51:16;22.70;99.90
8178;DHT22;4130;48.740;9.132;2023-05-07T08:53:45;22.80;99.90
8178;DHT22;4130;48.740;9.132;2023-05-07T08:56:14;23.00;99.90
8178;DHT22;4130;48.740;9.132;2023-05-07T08:58:41;23.10;99.90
8178;DHT22;4130;48.740;9.132;2023-05-07T09:01:09;23.40;99.90
8178;DHT22;4130;48.740;9.132;2023-05-07T09:03:37;23.30;99.90
8178;DHT22;4130;48.740;9.132;2023-05-07T09:06:06;23.40;99.90
8178;DHT22;4130;48.740;9.132;2023-05-07T09:08:33;23.80;99.90
8178;DHT22;4130;48.740;9.132;2023-05-07T09:11:00;23.90;99.90
8178;DHT22;4130;48.740;9.132;2023-05-07T09:13:27;23.70;99.90
8178;DHT22;4130;48.740;9.132;2023-05-07T09:16:10;23.80;99.90
8178;DHT22;4130;48.740;9.132;2023-05-07T09:18:40;24.00;99.90
8178;DHT22;4130;48.740;9.132;2023-05-07T09:21:11;24.40;99.90
8178;DHT22;4130;48.740;9.132;2023-05-07T09:23:38;25.00;99.90
8178;DHT22;4130;48.740;9.132;2023-05-07T09:26:05;25.30;99.90
8178;DHT22;4130;48.740;9.132;2023-05-07T09:28:38;25.30;99.90
8178;DHT22;4130;48.740;9.132;2023-05-07T09:31:05;25.30;99.90
8178;DHT22;4130;48.740;9.132;2023-05-07T09:33:32;25.60;99.90
8178;DHT22;4130;48.740;9.132;2023-05-07T09:35:59;26.00;98.40
8178;DHT22;4130;48.740;9.132;2023-05-07T09:38:30;25.80;98.40
8178;DHT22;4130;48.740;9.132;2023-05-07T09:41:03;25.70;99.30
8178;DHT22;4130;48.740;9.132;2023-05-07T09:43:33;25.40;98.90
8178;DHT22;4130;48.740;9.132;2023-05-07T09:46:03;25.60;98.80
8178;DHT22;4130;48.740;9.132;2023-05-07T09:48:30;26.20;97.70
8178;DHT22;4130;48.740;9.132;2023-05-07T09:50:57;26.40;98.10
8178;DHT22;4130;48.740;9.132;2023-05-07T09:53:30;26.50;97.70
8178;DHT22;4130;48.740;9.132;2023-05-07T09:55:58;26.40;97.90
8178;DHT22;4130;48.740;9.132;2023-05-07T09:58:26;26.80;97.40
8178;DHT22;4130;48.740;9.132;2023-05-07T10:00:52;27.00;96.90
8178;DHT22;4130;48.740;9.132;2023-05-07T10:03:20;26.80;96.70
8178;DHT22;4130;48.740;9.132;2023-05-07T10:05:49;27.00;96.90
8178;DHT22;4130;48.740;9.132;2023-05-07T10:08:16;26.70;96.20
8178;DHT22;4130;48.740;9.132;2023-05-07T10:10:47;26.70;96.40
8178;DHT22;4130;48.740;9.132;2023-05-07T10:13:14;26.30;96.50
8178;DHT22;4130;48.740;9.132;2023-05-07T10:15:41;25.80;96.10
8178;DHT22;4130;48.740;9.132;2023-05-07T10:18:08;26.00;97.00
8178;DHT22;4130;48.740;9.132;2023-05-07T10:20:36;26.00;96.70
8178;DHT22;4130;48.740;9.132;2023-05-07T10:23:04;26.60;97.60
8178;DHT22;4130;48.740;9.132;2023-05-07T10:25:32;26.80;96.60
8178;DHT22;4130;48.740;9.132;2023-05-07T10:28:05;27.30;95.60
8178;DHT22;4130;48.740;9.132;2023-05-07T10:30:38;27.80;95.80
8178;DHT22;4130;48.740;9.132;2023-05-07T10:33:09;28.50;95.20
8178;DHT22;4130;48.740;9.132;2023-05-07T10:35:39;28.60;94.00
8178;DHT22;4130;48.740;9.132;2023-05-07T10:38:07;28.70;93.90
8178;DHT22;4130;48.740;9.132;2023-05-07T10:40:35;28.50;94.10
8178;DHT22;4130;48.740;9.132;2023-05-07T10:43:04;28.70;93.60
8178;DHT22;4130;48.740;9.132;2023-05-07T10:45:32;28.30;93.30
8178;DHT22;4130;48.740;9.132;2023-05-07T10:48:10;28.20;93.30
8178;DHT22;4130;48.740;9.132;2023-05-07T10:50:37;28.50;93.60
8178;DHT22;4130;48.740;9.132;2023-05-07T10:53:24;28.60;93.20
8178;DHT22;4130;48.740;9.132;2023-05-07T10:56:24;28.90;92.80
8178;DHT22;4130;48.740;9.132;2023-05-07T10:58:53;28.40;92.20
8178;DHT22;4130;48.740;9.132;2023-05-07T11:01:50;28.20;92.00
8178;DHT22;4130;48.740;9.132;2023-05-07T11:04:17;28.10;92.10
8178;DHT22;4130;48.740;9.132;2023-05-07T11:07:26;28.10;92.10
8178;DHT22;4130;48.740;9.132;2023-05-07T11:10:04;28.10;91.60
8178;DHT22;4130;48.740;9.132;2023-05-07T11:12:50;28.30;92.70
8178;DHT22;4130;48.740;9.132;2023-05-07T11:15:39;28.40;91.40
8178;DHT22;4130;48.740;9.132;2023-05-07T11:18:07;28.80;92.30
8178;DHT22;4130;48.740;9.132;2023-05-07T11:20:49;28.90;91.00
8178;DHT22;4130;48.740;9.132;2023-05-07T11:23:56;28.80;91.40
8178;DHT22;4130;48.740;9.132;2023-05-07T11:26:28;28.40;90.90
8178;DHT22;4130;48.740;9.132;2023-05-07T11:28:55;27.70;91.00
8178;DHT22;4130;48.740;9.132;2023-05-07T11:31:24;27.30;91.80
8178;DHT22;4130;48.740;9.132;2023-05-07T11:33:53;26.80;91.90
8178;DHT22;4130;48.740;9.132;2023-05-07T11:36:21;26.30;91.30
8178;DHT22;4130;48.740;9.132;2023-05-07T11:38:49;25.70;92.60
8178;DHT22;4130;48.740;9.132;2023-05-07T11:41:16;25.40;92.90
8178;DHT22;4130;48.740;9.132;2023-05-07T11:43:58;25.00;93.40
8178;DHT22;4130;48.740;9.132;2023-05-07T11:46:27;24.70;93.40
8178;DHT22;4130;48.740;9.132;2023-05-07T11:48:54;24.40;93.70
8178;DHT22;4130;48.740;9.132;2023-05-07T11:51:22;24.20;93.90
8178;DHT22;4130;48.740;9.132;2023-05-07T11:53:51;24.10;94.00
8178;DHT22;4130;48.740;9.132;2023-05-07T11:56:18;23.90;93.40
8178;DHT22;4130;48.740;9.132;2023-05-07T11:58:47;23.70;93.80
8178;DHT22;4130;48.740;9.132;2023-05-07T12:01:15;23.60;94.70
8178;DHT22;4130;48.740;9.132;2023-05-07T12:03:45;23.30;95.90
8178;DHT22;4130;48.740;9.132;2023-05-07T12:06:13;22.80;97.00
8178;DHT22;4130;48.740;9.132;2023-05-07T12:08:41;22.10;98.00
8178;DHT22;4130;48.740;9.132;2023-05-07T12:11:09;21.40;98.80
8178;DHT22;4130;48.740;9.132;2023-05-07T12:13:37;21.00;99.50
8178;DHT22;4130;48.740;9.132;2023-05-07T12:16:05;20.50;99.90
8178;DHT22;4130;48.740;9.132;2023-05-07T12:18:33;20.20;99.90
8178;DHT22;4130;48.740;9.132;2023-05-07T12:21:02;19.90;99.90
8178;DHT22;4130;48.740;9.132;2023-05-07T12:23:30;19.70;99.90
8178;DHT22;4130;48.740;9.132;2023-05-07T12:25:57;19.60;99.90
8178;DHT22;4130;48.740;9.132;2023-05-07T12:28:26;19.30;99.90
8178;DHT22;4130;48.740;9.132;2023-05-07T12:30:53;19.00;99.90
8178;DHT22;4130;48.740;9.132;2023-05-07T12:33:24;18.90;99.90
8178;DHT22;4130;48.740;9.132;2023-05-07T12:35:53;17.60;99.90
8178;DHT22;4130;48.740;9.132;2023-05-07T12:38:22;16.80;99.90
8178;DHT22;4130;48.740;9.132;2023-05-07T12:40:49;16.20;99.90
8178;DHT22;4130;48.740;9.132;2023-05-07T12:43:17;15.70;99.90
8178;DHT22;4130;48.740;9.132;2023-05-07T12:45:45;15.40;99.90
8178;DHT22;4130;48.740;9.132;2023-05-07T12:48:19;15.20;99.90
8178;DHT22;4130;48.740;9.132;2023-05-07T12:50:49;14.90;99.90
8178;DHT22;4130;48.740;9.132;2023-05-07T12:53:22;14.60;99.90
8178;DHT22;4130;48.740;9.132;2023-05-07T12:55:51;14.50;99.90
8178;DHT22;4130;48.740;9.132;2023-05-07T12:58:19;14.50;99.90
8178;DHT22;4130;48.740;9.132;2023-05-07T13:00:49;14.50;99.90
8178;DHT22;4130;48.740;9.132;2023-05-07T13:03:24;14.50;99.90
8178;DHT22;4130;48.740;9.132;2023-05-07T13:05:51;14.50;99.90
8178;DHT22;4130;48.740;9.132;2023-05-07T13:08:30;14.40;99.90
8178;DHT22;4130;48.740;9.132;2023-05-07T13:10:58;14.40;99.90
8178;DHT22;4130;48.740;9.132;2023-05-07T13:13:28;14.40;99.90
8178;DHT22;4130;48.740;9.132;2023-05-07T13:15:55;14.30;99.90
8178;DHT22;4130;48.740;9.132;2023-05-07T13:18:22;14.30;99.90
8178;DHT22;4130;48.740;9.132;2023-05-07T13:20:48;14.20;99.90
8178;DHT22;4130;48.740;9.132;2023-05-07T13:23:15;14.40;99.90
8178;DHT22;4130;48.740;9.132;2023-05-07T13:25:43;14.20;99.90
8178;DHT22;4130;48.740;9.132;2023-05-07T13:28:10;14.30;99.90
8178;DHT22;4130;48.740;9.132;2023-05-07T13:30:37;14.40;99.90
8178;DHT22;4130;48.740;9.132;2023-05-07T13:33:04;14.40;99.90
8178;DHT22;4130;48.740;9.132;2023-05-07T13:35:30;14.40;99.90
8178;DHT22;4130;48.740;9.132;2023-05-07T13:37:57;14.30;99.90
8178;DHT22;4130;48.740;9.132;2023-05-07T13:40:24;14.30;99.90
8178;DHT22;4130;48.740;9.132;2023-05-07T13:42:53;14.40;99.90
8178;DHT22;4130;48.740;9.132;2023-05-07T13:45:20;14.30;99.90
8178;DHT22;4130;48.740;9.132;2023-05-07T13:47:47;14.30;99.90
8178;DHT22;4130;48.740;9.132;2023-05-07T13:50:14;14.40;99.90
8178;DHT22;4130;48.740;9.132;2023-05-07T13:52:42;14.40;99.90
8178;DHT22;4130;48.740;9.132;2023-05-07T13:55:11;14.50;99.90
8178;DHT22;4130;48.740;9.132;2023-05-07T13:57:38;14.60;99.90
8178;DHT22;4130;48.740;9.132;2023-05-07T14:00:07;14.50;99.90
8178;DHT22;4130;48.740;9.132;2023-05-07T14:02:34;14.50;99.90
8178;DHT22;4130;48.740;9.132;2023-05-07T14:05:01;14.50;99.90
8178;DHT22;4130;48.740;9.132;2023-05-07T14:07:28;14.50;99.90
8178;DHT22;4130;48.740;9.132;2023-05-07T14:09:55;14.50;99.90
8178;DHT22;4130;48.740;9.132;2023-05-07T14:12:22;14.50;99.90
8178;DHT22;4130;48.740;9.132;2023-05-07T14:14:48;14.50;99.90
8178;DHT22;4130;48.740;9.132;2023-05-07T14:17:18;14.50;99.90
8178;DHT22;4130;48.740;9.132;2023-05-07T14:19:45;14.50;99.90
8178;DHT22;4130;48.740;9.132;2023-05-07T14:22:13;14.50;99.90
8178;DHT22;4130;48.740;9.132;2023-05-07T14:24:40;14.60;99.90
8178;DHT22;4130;48.740;9.132;2023-05-07T14:27:06;14.60;99.90
8178;DHT22;4130;48.740;9.132;2023-05-07T14:29:33;14.60;99.90
8178;DHT22;4130;48.740;9.132;2023-05-07T14:32:01;14.50;99.90
8178;DHT22;4130;48.740;9.132;2023-05-07T14:34:30;14.60;99.90
8178;DHT22;4130;48.740;9.132;2023-05-07T14:36:59;14.60;99.90
8178;DHT22;4130;48.740;9.132;2023-05-07T14:39:26;14.60;99.90
8178;DHT22;4130;48.740;9.132;2023-05-07T14:41:53;14.60;99.90
8178;DHT22;4130;48.740;9.132;2023-05-07T14:44:21;14.60;99.90
8178;DHT22;4130;48.740;9.132;2023-05-07T14:46:48;14.70;99.90
8178;DHT22;4130;48.740;9.132;2023-05-07T14:49:14;14.70;99.90
8178;DHT22;4130;48.740;9.132;2023-05-07T14:51:44;14.70;99.90
8178;DHT22;4130;48.740;9.132;2023-05-07T14:54:11;14.70;99.90
8178;DHT22;4130;48.740;9.132;2023-05-07T14:56:39;14.80;99.90
8178;DHT22;4130;48.740;9.132;2023-05-07T14:59:06;14.80;99.90
8178;DHT22;4130;48.740;9.132;2023-05-07T15:01:34;14.80;99.90
8178;DHT22;4130;48.740;9.132;2023-05-07T15:04:02;14.80;99.90
8178;DHT22;4130;48.740;9.132;2023-05-07T15:06:29;14.80;99.90
8178;DHT22;4130;48.740;9.132;2023-05-07T15:08:57;14.90;99.90
8178;DHT22;4130;48.740;9.132;2023-05-07T15:11:24;15.00;99.90
8178;DHT22;4130;48.740;9.132;2023-05-07T15:13:51;15.00;99.90
8178;DHT22;4130;48.740;9.132;2023-05-07T15:16:19;15.10;99.90
8178;DHT22;4130;48.740;9.132;2023-05-07T15:18:47;15.20;99.90
8178;DHT22;4130;48.740;9.132;2023-05-07T15:21:14;15.20;99.90
8178;DHT22;4130;48.740;9.132;2023-05-07T15:23:41;15.20;99.90
8178;DHT22;4130;48.740;9.132;2023-05-07T15:26:11;15.30;99.90
8178;DHT22;4130;48.740;9.132;2023-05-07T15:28:37;15.30;99.90
8178;DHT22;4130;48.740;9.132;2023-05-07T15:31:04;15.30;99.90
8178;DHT22;4130;48.740;9.132;2023-05-07T15:33:33;15.20;99.90
8178;DHT22;4130;48.740;9.132;2023-05-07T15:36:00;15.20;99.90
8178;DHT22;4130;48.740;9.132;2023-05-07T15:38:29;15.30;99.90
8178;DHT22;4130;48.740;9.132;2023-05-07T15:40:57;15.50;99.90
8178;DHT22;4130;48.740;9.132;2023-05-07T15:43:25;15.60;99.90
8178;DHT22;4130;48.740;9.132;2023-05-07T15:45:52;15.80;99.90
8178;DHT22;4130;48.740;9.132;2023-05-07T15:48:19;15.90;99.90
8178;DHT22;4130;48.740;9.132;2023-05-07T15:50:45;15.90;99.90
8178;DHT22;4130;48.740;9.132;2023-05-07T15:53:12;16.00;99.90
8178;DHT22;4130;48.740;9.132;2023-05-07T15:55:39;15.90;99.90
8178;DHT22;4130;48.740;9.132;2023-05-07T15:58:07;15.90;99.90
8178;DHT22;4130;48.740;9.132;2023-05-07T16:00:35;15.90;99.90
8178;DHT22;4130;48.740;9.132;2023-05-07T16:03:05;15.80;99.90
8178;DHT22;4130;48.740;9.132;2023-05-07T16:05:32;15.70;99.90
8178;DHT22;4130;48.740;9.132;2023-05-07T16:07:59;15.70;99.90
8178;DHT22;4130;48.740;9.132;2023-05-07T16:10:28;15.60;99.90
8178;DHT22;4130;48.740;9.132;2023-05-07T16:12:55;15.60;99.90